createdAt,value
2019-04-20T00:01:01.544Z,12.18
2019-04-20T00:03:38.307Z,13.32
2019-04-20T00:06:06.974Z,12.70
2019-04-20T00:08:41.496Z,14.13
2019-04-20T00:11:19.756Z,14.03
2019-04-20T00:13:55.232Z,12.75
2019-04-20T00:16:18.922Z,14.07
2019-04-20T00:18:53.949Z,12.53
2019-04-20T00:21:49.615Z,11.63
2019-04-20T00:24:23.353Z,13.65
2019-04-20T00:29:47.944Z,14.68
2019-04-20T00:32:11.219Z,14.83
2019-04-20T00:34:35.612Z,9.30
2019-04-20T00:37:05.848Z,11.70
2019-04-20T00:39:38.251Z,16.35
2019-04-20T00:42:11.711Z,12.25
2019-04-20T00:44:45.774Z,12.30
2019-04-20T00:47:32.368Z,12.15
2019-04-20T00:50:04.056Z,11.40
2019-04-20T00:52:32.854Z,11.48
2019-04-20T00:54:53.957Z,11.55
2019-04-20T00:57:36.879Z,13.30
2019-04-20T01:00:17.660Z,16.00
2019-04-20T01:02:43.342Z,16.60
2019-04-20T01:05:22.887Z,13.95
2019-04-20T01:07:48.529Z,12.93
2019-04-20T01:10:17.304Z,13.50
2019-04-20T01:12:52.083Z,13.70
2019-04-20T01:15:28.101Z,14.68
2019-04-20T01:17:54.490Z,14.93
2019-04-20T01:20:26.364Z,13.80
2019-04-20T01:23:06.343Z,12.93
2019-04-20T01:25:36.015Z,9.63
2019-04-20T01:28:24.582Z,10.75
2019-04-20T01:30:44.625Z,10.58
2019-04-20T01:33:25.912Z,9.15
2019-04-20T01:35:58.284Z,7.60
2019-04-20T01:38:38.851Z,8.88
2019-04-20T01:40:52.715Z,7.03
2019-04-20T01:43:24.749Z,7.17
2019-04-20T01:46:05.117Z,7.90
2019-04-20T01:48:34.022Z,8.30
2019-04-20T01:51:11.815Z,6.97
2019-04-20T01:53:46.712Z,5.97
2019-04-20T01:56:24.490Z,7.40
2019-04-20T01:59:06.263Z,6.40
2019-04-20T02:01:30.913Z,7.87
2019-04-20T02:04:07.347Z,6.53
2019-04-20T02:06:48.845Z,7.22
2019-04-20T02:09:20.473Z,8.28
2019-04-20T02:11:50.853Z,9.15
2019-04-20T02:14:30.788Z,9.98
2019-04-20T02:17:04.437Z,8.23
2019-04-20T02:19:43.114Z,9.18
2019-04-20T02:22:14.932Z,8.28
2019-04-20T02:24:32.512Z,7.30
2019-04-20T02:27:04.178Z,7.67
2019-04-20T02:30:02.504Z,5.10
2019-04-20T02:32:36.495Z,8.78
2019-04-20T02:35:29.908Z,7.78
2019-04-20T02:40:50.907Z,9.35
2019-04-20T02:43:40.477Z,10.05
2019-04-20T02:45:44.250Z,10.18
2019-04-20T02:48:23.595Z,8.78
2019-04-20T02:50:59.657Z,9.70
2019-04-20T02:53:31.048Z,8.95
2019-04-20T02:56:09.045Z,5.12
2019-04-20T02:58:36.382Z,7.30
2019-04-20T03:01:09.617Z,8.15
2019-04-20T03:03:30.688Z,10.03
2019-04-20T03:06:08.656Z,8.13
2019-04-20T03:08:54.526Z,8.90
2019-04-20T03:11:26.217Z,9.20
2019-04-20T03:13:54.561Z,9.05
2019-04-20T03:16:24.273Z,8.45
2019-04-20T03:18:58.435Z,9.08
2019-04-20T03:21:37.588Z,8.40
2019-04-20T03:24:13.214Z,9.35
2019-04-20T03:26:40.784Z,8.88
2019-04-20T03:29:12.843Z,8.18
2019-04-20T03:32:28.825Z,11.12
2019-04-20T03:35:01.075Z,9.13
2019-04-20T03:37:07.072Z,10.25
2019-04-20T03:39:32.458Z,10.40
2019-04-20T03:41:50.271Z,8.60
2019-04-20T03:44:24.403Z,9.83
2019-04-20T03:46:58.048Z,9.08
2019-04-20T03:49:55.052Z,7.62
2019-04-20T03:52:27.480Z,10.43
2019-04-20T03:54:57.097Z,10.72
2019-04-20T03:57:49.820Z,9.80
2019-04-20T04:00:23.278Z,10.72
2019-04-20T04:03:12.604Z,8.40
2019-04-20T04:05:36.865Z,9.23
2019-04-20T04:08:03.145Z,8.75
2019-04-20T04:10:47.177Z,7.95
2019-04-20T04:13:07.276Z,8.93
2019-04-20T04:15:44.274Z,8.95
2019-04-20T04:18:19.691Z,8.78
2019-04-20T04:20:52.147Z,7.95
2019-04-20T04:23:38.051Z,7.70
2019-04-20T04:28:41.079Z,8.55
2019-04-20T04:31:16.389Z,9.88
2019-04-20T04:33:55.819Z,8.70
2019-04-20T04:36:20.811Z,8.83
2019-04-20T04:39:05.413Z,9.85
2019-04-20T04:41:35.477Z,8.78
2019-04-20T04:44:04.468Z,8.80
2019-04-20T04:46:19.109Z,9.45
2019-04-20T04:48:52.879Z,9.47
2019-04-20T04:51:29.451Z,9.33
2019-04-20T04:54:03.685Z,7.78
2019-04-20T04:56:30.854Z,9.63
2019-04-20T04:59:02.721Z,8.73
2019-04-20T05:01:37.005Z,6.90
2019-04-20T05:04:24.779Z,8.05
2019-04-20T05:06:53.537Z,7.08
2019-04-20T05:09:15.432Z,8.78
2019-04-20T05:11:51.767Z,9.70
2019-04-20T05:14:24.424Z,8.20
2019-04-20T05:17:10.163Z,10.88
2019-04-20T05:19:50.065Z,9.98
2019-04-20T05:22:23.002Z,11.08
2019-04-20T05:25:03.489Z,12.47
2019-04-20T05:27:44.055Z,10.25
2019-04-20T05:29:54.928Z,10.85
2019-04-20T05:32:36.137Z,10.78
2019-04-20T05:35:24.064Z,10.88
2019-04-20T05:38:02.706Z,11.40
2019-04-20T05:40:27.505Z,12.35
2019-04-20T05:43:15.501Z,11.85
2019-04-20T05:45:46.335Z,13.32
2019-04-20T05:48:19.467Z,13.25
2019-04-20T05:50:58.721Z,12.63
2019-04-20T05:53:44.380Z,13.32
2019-04-20T05:56:17.386Z,12.43
2019-04-20T05:58:49.413Z,14.20
2019-04-20T06:01:34.606Z,14.38
2019-04-20T06:03:57.712Z,14.00
2019-04-20T06:06:37.579Z,13.90
2019-04-20T06:09:22.638Z,13.80
2019-04-20T06:12:03.769Z,14.30
2019-04-20T06:14:33.106Z,13.98
2019-04-20T06:17:23.857Z,14.03
2019-04-20T06:19:58.256Z,13.85
2019-04-20T06:22:31.120Z,13.58
2019-04-20T06:25:19.590Z,14.35
2019-04-20T06:27:41.075Z,13.40
2019-04-20T06:30:05.916Z,13.43
2019-04-20T06:33:34.240Z,13.45
2019-04-20T06:38:52.314Z,14.28
2019-04-20T06:41:14.046Z,13.45
2019-04-20T06:43:42.075Z,13.62
2019-04-20T06:46:09.555Z,14.63
2019-04-20T06:48:45.812Z,14.73
2019-04-20T06:51:18.681Z,13.93
2019-04-20T06:53:49.953Z,14.30
2019-04-20T06:56:35.400Z,13.43
2019-04-20T06:59:12.611Z,13.45
2019-04-20T07:01:48.705Z,14.25
2019-04-20T07:04:37.631Z,12.40
2019-04-20T07:06:59.205Z,13.25
2019-04-20T07:09:30.905Z,13.60
2019-04-20T07:11:50.594Z,13.08
2019-04-20T07:14:17.269Z,13.55
2019-04-20T07:17:07.186Z,13.98
2019-04-20T07:19:44.461Z,12.07
2019-04-20T07:22:32.143Z,12.15
2019-04-20T07:25:06.465Z,13.18
2019-04-20T07:27:30.804Z,13.15
2019-04-20T07:30:04.106Z,13.85
2019-04-20T07:32:43.812Z,13.62
2019-04-20T07:35:08.397Z,13.72
2019-04-20T07:40:33.331Z,13.78
2019-04-20T07:43:01.575Z,12.28
2019-04-20T07:45:35.087Z,13.72
2019-04-20T07:48:11.491Z,14.25
2019-04-20T07:50:35.791Z,13.50
2019-04-20T07:53:12.228Z,13.32
2019-04-20T07:55:56.352Z,12.40
2019-04-20T07:58:17.203Z,12.65
2019-04-20T08:01:07.845Z,13.08
2019-04-20T08:03:39.072Z,11.88
2019-04-20T08:06:14.492Z,12.43
2019-04-20T08:08:53.130Z,12.80
2019-04-20T08:11:32.163Z,11.75
2019-04-20T08:14:14.535Z,11.33
2019-04-20T08:16:47.082Z,11.65
2019-04-20T08:19:10.481Z,10.95
2019-04-20T08:21:47.289Z,12.03
2019-04-20T08:24:17.627Z,11.10
2019-04-20T08:26:41.353Z,10.98
2019-04-20T08:29:29.089Z,11.28
2019-04-20T08:32:25.964Z,11.10
2019-04-20T08:34:59.446Z,12.03
2019-04-20T08:37:34.401Z,11.18
2019-04-20T08:40:07.467Z,11.48
2019-04-20T08:42:49.734Z,12.37
2019-04-20T08:45:20.143Z,11.55
2019-04-20T08:47:49.995Z,8.60
2019-04-20T08:53:11.163Z,10.35
2019-04-20T08:55:26.331Z,9.90
2019-04-20T08:57:39.986Z,10.55
2019-04-20T09:02:51.647Z,9.85
2019-04-20T09:05:32.625Z,8.33
2019-04-20T09:08:00.535Z,10.30
2019-04-20T09:10:42.405Z,9.08
2019-04-20T09:13:08.366Z,8.73
2019-04-20T09:15:29.977Z,9.03
2019-04-20T09:18:20.780Z,8.08
2019-04-20T09:20:48.478Z,8.18
2019-04-20T09:23:26.608Z,8.38
2019-04-20T09:26:06.224Z,9.53
2019-04-20T09:28:32.073Z,8.75
2019-04-20T09:31:11.915Z,8.83
2019-04-20T09:34:02.767Z,8.68
2019-04-20T09:36:42.007Z,8.35
2019-04-20T09:39:17.700Z,7.90
2019-04-20T09:42:01.439Z,7.67
2019-04-20T09:44:37.523Z,7.55
2019-04-20T09:47:07.364Z,7.95
2019-04-20T09:49:52.913Z,6.47
2019-04-20T09:52:28.272Z,8.70
2019-04-20T09:54:58.951Z,8.03
2019-04-20T09:57:41.039Z,7.35
2019-04-20T10:00:05.394Z,7.53
2019-04-20T10:02:29.285Z,8.58
2019-04-20T10:05:01.907Z,8.50
2019-04-20T10:07:35.619Z,8.48
2019-04-20T10:10:21.705Z,7.45
2019-04-20T10:12:43.950Z,5.95
2019-04-20T10:15:19.464Z,6.95
2019-04-20T10:17:49.786Z,6.58
2019-04-20T10:20:28.357Z,8.43
2019-04-20T10:22:54.423Z,7.50
2019-04-20T10:25:26.667Z,6.75
2019-04-20T10:27:57.981Z,6.83
2019-04-20T10:33:03.560Z,7.80
2019-04-20T10:35:36.945Z,6.08
2019-04-20T10:38:31.077Z,6.92
2019-04-20T10:41:12.652Z,7.15
2019-04-20T10:43:36.789Z,7.10
2019-04-20T10:46:10.983Z,7.30
2019-04-20T10:48:48.021Z,8.68
2019-04-20T10:51:15.611Z,10.05
2019-04-20T10:53:48.392Z,9.03
2019-04-20T10:56:21.203Z,9.38
2019-04-20T10:58:53.825Z,8.60
2019-04-20T11:03:56.621Z,13.75
2019-04-20T11:06:28.942Z,6.45
2019-04-20T11:09:00.449Z,6.35
2019-04-20T11:11:35.328Z,7.75
2019-04-20T11:14:14.446Z,7.17
2019-04-20T11:16:42.456Z,7.20
2019-04-20T11:19:13.691Z,5.95
2019-04-20T11:21:48.723Z,5.53
2019-04-20T11:24:20.498Z,5.97
2019-04-20T11:29:24.240Z,7.28
2019-04-20T11:31:56.490Z,6.80
2019-04-20T11:34:33.293Z,9.05
2019-04-20T11:37:01.524Z,10.32
2019-04-20T11:39:34.916Z,10.03
2019-04-20T11:42:09.836Z,8.53
2019-04-20T11:44:42.179Z,8.28
2019-04-20T11:47:14.717Z,8.23
2019-04-20T11:49:46.047Z,5.78
2019-04-20T11:52:20.292Z,5.05
2019-04-20T11:54:50.589Z,4.15
2019-04-20T11:57:22.052Z,5.65
2019-04-20T11:59:57.082Z,7.42
2019-04-20T12:02:37.128Z,7.33
2019-04-20T12:05:21.521Z,6.70
2019-04-20T12:07:55.415Z,6.83
2019-04-20T12:10:28.330Z,6.60
2019-04-20T12:13:03.840Z,6.47
2019-04-20T12:15:37.462Z,5.65
2019-04-20T12:18:09.517Z,5.92
2019-04-20T12:20:42.928Z,6.78
2019-04-20T12:23:14.230Z,6.80
2019-04-20T12:25:46.308Z,6.92
2019-04-20T12:28:17.979Z,4.42
2019-04-20T12:30:49.198Z,6.12
2019-04-20T12:33:21.853Z,7.30
2019-04-20T12:35:54.201Z,7.78
2019-04-20T12:38:25.491Z,6.47
2019-04-20T12:40:57.801Z,6.75
2019-04-20T12:43:29.878Z,7.03
2019-04-20T12:48:35.590Z,6.50
2019-04-20T12:51:08.479Z,9.23
2019-04-20T12:53:40.536Z,7.78
2019-04-20T12:56:12.813Z,7.33
2019-04-20T12:58:45.153Z,7.95
2019-04-20T13:01:19.326Z,7.03
2019-04-20T13:03:49.935Z,7.50
2019-04-20T13:06:21.721Z,6.33
2019-04-20T13:08:56.837Z,8.50
2019-04-20T13:11:34.709Z,7.40
2019-04-20T13:14:48.566Z,7.62
2019-04-20T13:17:22.068Z,6.15
2019-04-20T13:19:53.440Z,5.70
2019-04-20T13:22:25.357Z,6.25
2019-04-20T13:27:29.162Z,6.45
2019-04-20T13:30:01.273Z,6.92
2019-04-20T13:32:33.987Z,6.65
2019-04-20T13:35:08.013Z,6.35
2019-04-20T13:37:41.755Z,3.50
2019-04-20T13:40:13.623Z,3.40
2019-04-20T13:42:45.637Z,4.17
2019-04-20T13:45:19.085Z,3.42
2019-04-20T13:47:52.739Z,4.67
2019-04-20T13:50:26.251Z,5.15
2019-04-20T13:52:58.582Z,4.47
2019-04-20T13:55:30.235Z,5.15
2019-04-20T13:58:20.107Z,5.30
2019-04-20T14:00:57.248Z,5.47
2019-04-20T14:03:30.385Z,3.80
2019-04-20T14:06:02.634Z,4.03
2019-04-20T14:11:07.320Z,4.72
2019-04-20T14:13:47.155Z,4.17
2019-04-20T14:16:14.399Z,2.50
2019-04-20T14:21:18.492Z,4.60
2019-04-20T14:23:50.839Z,4.50
2019-04-20T14:26:22.991Z,5.85
2019-04-20T14:28:54.783Z,6.00
2019-04-20T14:31:26.163Z,6.80
2019-04-20T14:33:59.068Z,4.70
2019-04-20T14:36:30.782Z,4.70
2019-04-20T14:39:02.524Z,4.30
2019-04-20T14:41:36.041Z,4.67
2019-04-20T14:46:39.991Z,5.22
2019-04-20T14:51:41.965Z,5.05
2019-04-20T14:54:14.640Z,5.55
2019-04-20T14:56:45.787Z,5.50
2019-04-20T14:59:31.665Z,5.10
2019-04-20T15:02:10.497Z,5.00
2019-04-20T15:04:45.316Z,3.70
2019-04-20T15:07:16.779Z,5.05
2019-04-20T15:09:50.914Z,4.53
2019-04-20T15:12:36.567Z,4.62
2019-04-20T15:15:08.462Z,4.80
2019-04-20T15:17:51.389Z,4.78
2019-04-20T15:20:25.540Z,5.12
2019-04-20T15:22:59.315Z,5.28
2019-04-20T15:25:31.681Z,5.47
2019-04-20T15:28:02.998Z,5.10
2019-04-20T15:30:34.447Z,5.15
2019-04-20T15:33:07.175Z,7.30
2019-04-20T15:35:38.369Z,6.58
2019-04-20T15:38:11.129Z,6.22
2019-04-20T15:40:42.399Z,5.92
2019-04-20T15:43:17.986Z,5.17
2019-04-20T15:45:47.547Z,5.75
2019-04-20T15:48:19.898Z,4.60
2019-04-20T15:50:51.874Z,5.28
2019-04-20T15:53:23.892Z,5.35
2019-04-20T15:55:57.583Z,4.70
2019-04-20T15:58:30.160Z,5.40
2019-04-20T16:01:02.748Z,5.50
2019-04-20T16:03:39.276Z,5.78
2019-04-20T16:06:13.694Z,5.67
2019-04-20T16:08:48.082Z,5.85
2019-04-20T16:11:19.468Z,5.00
2019-04-20T16:13:53.923Z,5.15
2019-04-20T16:16:23.837Z,4.35
2019-04-20T16:18:56.982Z,5.10
2019-04-20T16:21:32.030Z,4.95
2019-04-20T16:24:04.321Z,5.67
2019-04-20T16:26:47.458Z,6.17
2019-04-20T16:29:19.933Z,5.17
2019-04-20T16:31:52.150Z,8.63
2019-04-20T16:34:23.430Z,5.65
2019-04-20T16:36:56.464Z,7.60
2019-04-20T16:39:28.316Z,6.78
2019-04-20T16:42:00.428Z,9.68
2019-04-20T16:44:31.581Z,7.10
2019-04-20T16:47:04.083Z,16.60
2019-04-20T16:49:35.394Z,12.55
2019-04-20T16:52:07.364Z,17.20
2019-04-20T16:54:39.768Z,13.70
2019-04-20T16:57:12.604Z,28.27
2019-04-20T16:59:48.278Z,18.10
2019-04-20T17:02:19.198Z,20.72
2019-04-20T17:04:52.027Z,16.57
2019-04-20T17:07:28.994Z,18.27
2019-04-20T17:10:00.563Z,14.03
2019-04-20T17:12:33.810Z,10.05
2019-04-20T17:15:09.926Z,6.95
2019-04-20T17:17:41.119Z,7.25
2019-04-20T17:20:13.998Z,5.97
2019-04-20T17:22:48.815Z,8.50
2019-04-20T17:25:24.134Z,6.65
2019-04-20T17:28:04.640Z,6.83
2019-04-20T17:30:54.947Z,6.60
2019-04-20T17:33:32.572Z,6.12
2019-04-20T17:36:14.528Z,6.92
2019-04-20T17:38:45.872Z,13.70
2019-04-20T17:41:36.222Z,8.48
2019-04-20T17:44:05.477Z,13.50
2019-04-20T17:46:35.753Z,9.68
2019-04-20T17:49:09.625Z,9.80
2019-04-20T17:51:54.841Z,10.18
2019-04-20T17:54:17.743Z,12.78
2019-04-20T17:56:52.002Z,19.85
2019-04-20T17:59:24.388Z,16.25
2019-04-20T18:02:25.679Z,19.48
2019-04-20T18:05:22.308Z,23.22
2019-04-20T18:07:45.341Z,20.95
2019-04-20T18:10:17.529Z,16.45
2019-04-20T18:12:41.862Z,15.25
2019-04-20T18:15:29.357Z,10.63
2019-04-20T18:18:00.256Z,16.82
2019-04-20T18:20:25.042Z,19.87
2019-04-20T18:22:57.323Z,19.00
2019-04-20T18:25:56.264Z,12.88
2019-04-20T18:28:14.594Z,15.95
2019-04-20T18:30:51.384Z,16.60
2019-04-20T18:33:18.845Z,11.53
2019-04-20T18:35:52.235Z,15.78
2019-04-20T18:38:30.529Z,14.50
2019-04-20T18:41:05.785Z,17.17
2019-04-20T18:43:43.914Z,17.30
2019-04-20T18:46:21.695Z,23.18
2019-04-20T18:49:03.530Z,31.90
2019-04-20T18:51:13.495Z,34.92
2019-04-20T18:53:48.231Z,35.83
2019-04-20T18:56:25.637Z,37.50
2019-04-20T18:58:53.345Z,42.67
2019-04-20T19:01:31.938Z,30.08
2019-04-20T19:04:03.673Z,24.00
2019-04-20T19:06:38.131Z,16.97
2019-04-20T19:09:16.680Z,17.02
2019-04-20T19:11:50.862Z,33.40
2019-04-20T19:14:38.252Z,34.38
2019-04-20T19:17:40.421Z,27.48
2019-04-20T19:20:08.600Z,27.22
2019-04-20T19:22:41.935Z,20.43
2019-04-20T19:25:18.310Z,25.48
2019-04-20T19:27:53.555Z,26.55
2019-04-20T19:30:31.213Z,19.70
2019-04-20T19:33:11.360Z,15.68
2019-04-20T19:35:40.441Z,14.65
2019-04-20T19:38:10.271Z,18.25
2019-04-20T19:40:47.803Z,17.82
2019-04-20T19:43:20.811Z,16.32
2019-04-20T19:46:25.580Z,18.17
2019-04-20T19:48:29.238Z,18.85
2019-04-20T19:51:12.768Z,17.50
2019-04-20T19:53:42.940Z,16.82
2019-04-20T19:56:07.757Z,14.60
2019-04-20T19:58:39.708Z,11.63
2019-04-20T20:01:03.586Z,17.10
2019-04-20T20:03:37.605Z,15.72
2019-04-20T20:06:18.555Z,13.45
2019-04-20T20:08:55.244Z,14.60
2019-04-20T20:11:29.526Z,13.95
2019-04-20T20:13:57.065Z,14.35
2019-04-20T20:16:50.678Z,14.63
2019-04-20T20:19:13.313Z,14.75
2019-04-20T20:21:54.452Z,15.78
2019-04-20T20:24:14.262Z,16.37
2019-04-20T20:26:52.556Z,19.82
2019-04-20T20:29:25.098Z,18.60
2019-04-20T20:32:05.212Z,19.20
2019-04-20T20:34:32.427Z,24.40
2019-04-20T20:37:00.585Z,26.42
2019-04-20T20:39:34.402Z,26.30
2019-04-20T20:42:15.167Z,23.10
2019-04-20T20:44:45.765Z,23.57
2019-04-20T20:47:39.799Z,21.17
2019-04-20T20:50:11.301Z,24.35
2019-04-20T20:52:32.383Z,27.75
2019-04-20T20:55:00.764Z,25.90
2019-04-20T20:57:24.797Z,34.83
2019-04-20T21:00:02.452Z,30.90
2019-04-20T21:02:40.169Z,25.32
2019-04-20T21:05:01.918Z,23.98
2019-04-20T21:10:08.299Z,27.73
2019-04-20T21:12:49.360Z,27.30
2019-04-20T21:15:20.995Z,29.77
2019-04-20T21:18:08.386Z,24.37
2019-04-20T21:20:46.537Z,31.07
2019-04-20T21:23:11.590Z,28.23
2019-04-20T21:25:36.104Z,29.48
2019-04-20T21:28:02.666Z,23.52
2019-04-20T21:30:42.780Z,21.52
2019-04-20T21:33:09.773Z,18.55
2019-04-20T21:35:46.404Z,27.60
2019-04-20T21:38:16.526Z,19.10
2019-04-20T21:40:51.305Z,19.80
2019-04-20T21:43:27.871Z,14.50
2019-04-20T21:45:59.728Z,21.87
2019-04-20T21:48:49.285Z,20.35
2019-04-20T21:51:15.253Z,25.20
2019-04-20T21:53:35.331Z,14.28
2019-04-20T21:56:07.999Z,19.70
2019-04-20T21:58:43.640Z,16.17
2019-04-20T22:01:24.314Z,16.00
2019-04-20T22:03:48.045Z,7.35
2019-04-20T22:06:20.283Z,10.68
2019-04-20T22:08:59.793Z,17.10
2019-04-20T22:11:25.962Z,18.60
2019-04-20T22:14:02.189Z,16.27
2019-04-20T22:16:37.800Z,13.68
2019-04-20T22:19:16.019Z,18.87
2019-04-20T22:21:50.225Z,20.90
2019-04-20T22:24:28.744Z,17.02
2019-04-20T22:26:54.922Z,15.43
2019-04-20T22:29:16.251Z,17.12
2019-04-20T22:31:56.738Z,16.12
2019-04-20T22:34:24.573Z,16.48
2019-04-20T22:36:53.866Z,17.05
2019-04-20T22:39:33.653Z,17.20
2019-04-20T22:42:05.645Z,19.30
2019-04-20T22:44:34.355Z,14.43
2019-04-20T22:47:12.405Z,16.65
2019-04-20T22:49:51.476Z,17.75
2019-04-20T22:52:26.950Z,17.45
2019-04-20T22:55:01.287Z,17.73
2019-04-20T22:57:31.808Z,19.02
2019-04-20T23:00:00.598Z,18.82
2019-04-20T23:02:24.892Z,17.15
2019-04-20T23:04:57.089Z,16.15
2019-04-20T23:07:28.535Z,17.87
2019-04-20T23:10:01.992Z,19.82
2019-04-20T23:12:34.047Z,17.75
2019-04-20T23:15:08.198Z,19.05
2019-04-20T23:17:43.392Z,19.40
2019-04-20T23:20:21.105Z,20.48
2019-04-20T23:22:49.376Z,20.02
2019-04-20T23:25:20.954Z,20.32
2019-04-20T23:28:00.552Z,21.12
2019-04-20T23:30:30.217Z,18.90
2019-04-20T23:32:58.007Z,19.65
2019-04-20T23:35:30.370Z,18.15
2019-04-20T23:38:10.454Z,19.00
2019-04-20T23:40:35.299Z,16.87
2019-04-20T23:43:15.282Z,19.05
2019-04-20T23:45:52.942Z,20.00
2019-04-20T23:48:34.879Z,15.53
2019-04-20T23:51:25.002Z,16.17
2019-04-20T23:53:49.205Z,17.85
2019-04-20T23:56:07.908Z,16.55
2019-04-20T23:58:44.495Z,19.50
